sensor_id;sensor_type;location;lat;lon;timestamp;temperature;humidity
13856;DHT22;6998;53.608;9.958;2023-05-07T00:00:54;9.70;99.90
13856;DHT22;6998;53.608;9.958;2023-05-07T00:03:20;9.70;99.90
13856;DHT22;6998;53.608;9.958;2023-05-07T00:05:49;9.70;99.90
13856;DHT22;6998;53.608;9.958;2023-05-07T00:08:15;9.70;99.90
13856;DHT22;6998;53.608;9.958;2023-05-07T00:10:42;9.60;99.90
13856;DHT22;6998;53.608;9.958;2023-05-07T00:13:09;9.60;99.90
13856;DHT22;6998;53.608;9.958;2023-05-07T00:15:36;9.60;99.90
13856;DHT22;6998;53.608;9.958;2023-05-07T00:18:03;9.60;99.90
13856;DHT22;6998;53.608;9.958;2023-05-07T00:20:30;9.60;99.90
13856;DHT22;6998;53.608;9.958;2023-05-07T00:23:00;9.60;99.90
13856;DHT22;6998;53.608;9.958;2023-05-07T00:25:26;9.50;99.90
13856;DHT22;6998;53.608;9.958;2023-05-07T00:27:53;9.50;99.90
13856;DHT22;6998;53.608;9.958;2023-05-07T00:30:23;9.60;99.90
13856;DHT22;6998;53.608;9.958;2023-05-07T00:32:49;9.50;99.90
13856;DHT22;6998;53.608;9.958;2023-05-07T00:35:16;9.50;99.90
13856;DHT22;6998;53.608;9.958;2023-05-07T00:37:43;9.50;99.90
13856;DHT22;6998;53.608;9.958;2023-05-07T00:40:12;9.50;99.90
13856;DHT22;6998;53.608;9.958;2023-05-07T00:42:39;9.50;99.90
13856;DHT22;6998;53.608;9.958;2023-05-07T00:45:07;9.40;99.90
13856;DHT22;6998;53.608;9.958;2023-05-07T00:47:36;9.50;99.90
13856;DHT22;6998;53.608;9.958;2023-05-07T00:50:04;9.50;99.90
13856;DHT22;6998;53.608;9.958;2023-05-07T00:52:31;9.50;99.90
13856;DHT22;6998;53.608;9.958;2023-05-07T00:54:57;9.50;99.90
13856;DHT22;6998;53.608;9.958;2023-05-07T00:57:28;9.50;99.90
13856;DHT22;6998;53.608;9.958;2023-05-07T00:59:55;9.60;99.90
13856;DHT22;6998;53.608;9.958;2023-05-07T01:02:21;9.50;99.90
13856;DHT22;6998;53.608;9.958;2023-05-07T01:04:48;9.50;99.90
13856;DHT22;6998;53.608;9.958;2023-05-07T01:07:15;9.50;99.90
13856;DHT22;6998;53.608;9.958;2023-05-07T01:09:42;9.50;99.90
13856;DHT22;6998;53.608;9.958;2023-05-07T01:12:09;9.40;99.90
13856;DHT22;6998;53.608;9.958;2023-05-07T01:14:38;9.50;99.90
13856;DHT22;6998;53.608;9.958;2023-05-07T01:17:05;9.50;99.90
13856;DHT22;6998;53.608;9.958;2023-05-07T01:19:32;9.50;99.90
13856;DHT22;6998;53.608;9.958;2023-05-07T01:22:02;9.50;99.90
13856;DHT22;6998;53.608;9.958;2023-05-07T01:24:49;9.50;99.90
13856;DHT22;6998;53.608;9.958;2023-05-07T01:27:17;9.50;99.90
13856;DHT22;6998;53.608;9.958;2023-05-07T01:29:44;9.50;99.90
13856;DHT22;6998;53.608;9.958;2023-05-07T01:32:13;9.50;99.90
13856;DHT22;6998;53.608;9.958;2023-05-07T01:37:31;9.40;99.90
13856;DHT22;6998;53.608;9.958;2023-05-07T01:40:24;9.40;99.90
13856;DHT22;6998;53.608;9.958;2023-05-07T01:43:06;9.50;99.90
13856;DHT22;6998;53.608;9.958;2023-05-07T01:45:34;9.40;99.90
13856;DHT22;6998;53.608;9.958;2023-05-07T01:48:04;9.40;99.90
13856;DHT22;6998;53.608;9.958;2023-05-07T01:50:31;9.40;99.90
13856;DHT22;6998;53.608;9.958;2023-05-07T01:53:01;9.40;99.90
13856;DHT22;6998;53.608;9.958;2023-05-07T01:58:58;9.40;99.90
13856;DHT22;6998;53.608;9.958;2023-05-07T02:01:25;9.40;99.90
13856;DHT22;6998;53.608;9.958;2023-05-07T02:03:52;9.30;99.90
13856;DHT22;6998;53.608;9.958;2023-05-07T02:06:19;9.40;99.90
13856;DHT22;6998;53.608;9.958;2023-05-07T02:08:47;9.40;99.90
13856;DHT22;6998;53.608;9.958;2023-05-07T02:11:17;9.40;99.90
13856;DHT22;6998;53.608;9.958;2023-05-07T02:13:44;9.40;99.90
13856;DHT22;6998;53.608;9.958;2023-05-07T02:16:12;9.50;99.90
13856;DHT22;6998;53.608;9.958;2023-05-07T02:18:39;9.40;99.90
13856;DHT22;6998;53.608;9.958;2023-05-07T02:21:06;9.40;99.90
13856;DHT22;6998;53.608;9.958;2023-05-07T02:23:33;9.40;99.90
13856;DHT22;6998;53.608;9.958;2023-05-07T02:25:59;9.50;99.90
13856;DHT22;6998;53.608;9.958;2023-05-07T02:28:26;9.50;99.90
13856;DHT22;6998;53.608;9.958;2023-05-07T02:30:53;9.50;99.90
13856;DHT22;6998;53.608;9.958;2023-05-07T02:33:23;9.40;99.90
13856;DHT22;6998;53.608;9.958;2023-05-07T02:35:50;9.50;99.90
13856;DHT22;6998;53.608;9.958;2023-05-07T02:38:17;9.40;99.90
13856;DHT22;6998;53.608;9.958;2023-05-07T02:40:44;9.50;99.90
13856;DHT22;6998;53.608;9.958;2023-05-07T02:43:11;9.40;99.90
13856;DHT22;6998;53.608;9.958;2023-05-07T02:45:37;9.40;99.90
13856;DHT22;6998;53.608;9.958;2023-05-07T02:48:05;9.40;99.90
13856;DHT22;6998;53.608;9.958;2023-05-07T02:50:33;9.40;99.90
13856;DHT22;6998;53.608;9.958;2023-05-07T02:53:00;9.40;99.90
13856;DHT22;6998;53.608;9.958;2023-05-07T02:55:26;9.40;99.90
13856;DHT22;6998;53.608;9.958;2023-05-07T02:57:53;9.40;99.90
13856;DHT22;6998;53.608;9.958;2023-05-07T03:00:21;9.40;99.90
13856;DHT22;6998;53.608;9.958;2023-05-07T03:02:48;9.40;99.90
13856;DHT22;6998;53.608;9.958;2023-05-07T03:05:14;9.50;99.90
13856;DHT22;6998;53.608;9.958;2023-05-07T03:07:42;9.50;99.90
13856;DHT22;6998;53.608;9.958;2023-05-07T03:10:11;9.60;99.90
13856;DHT22;6998;53.608;9.958;2023-05-07T03:12:38;9.60;99.90
13856;DHT22;6998;53.608;9.958;2023-05-07T03:15:06;9.60;99.90
13856;DHT22;6998;53.608;9.958;2023-05-07T03:17:33;9.50;99.90
13856;DHT22;6998;53.608;9.958;2023-05-07T03:20:00;9.50;99.90
13856;DHT22;6998;53.608;9.958;2023-05-07T03:22:27;9.50;99.90
13856;DHT22;6998;53.608;9.958;2023-05-07T03:24:55;9.40;99.90
13856;DHT22;6998;53.608;9.958;2023-05-07T03:27:22;9.40;99.90
13856;DHT22;6998;53.608;9.958;2023-05-07T03:29:49;9.30;99.90
13856;DHT22;6998;53.608;9.958;2023-05-07T03:32:16;9.40;99.90
13856;DHT22;6998;53.608;9.958;2023-05-07T03:34:43;9.30;99.90
13856;DHT22;6998;53.608;9.958;2023-05-07T03:37:09;9.40;99.90
13856;DHT22;6998;53.608;9.958;2023-05-07T03:39:36;9.30;99.90
13856;DHT22;6998;53.608;9.958;2023-05-07T03:42:05;9.40;99.90
13856;DHT22;6998;53.608;9.958;2023-05-07T03:44:32;9.40;99.90
13856;DHT22;6998;53.608;9.958;2023-05-07T03:46:58;9.30;99.90
13856;DHT22;6998;53.608;9.958;2023-05-07T03:49:25;9.40;99.90
13856;DHT22;6998;53.608;9.958;2023-05-07T03:51:52;9.30;99.90
13856;DHT22;6998;53.608;9.958;2023-05-07T03:54:18;9.40;99.90
13856;DHT22;6998;53.608;9.958;2023-05-07T03:56:46;9.30;99.90
13856;DHT22;6998;53.608;9.958;2023-05-07T03:59:14;9.30;99.90
13856;DHT22;6998;53.608;9.958;2023-05-07T04:01:41;9.40;99.90
13856;DHT22;6998;53.608;9.958;2023-05-07T04:04:10;9.40;99.90
13856;DHT22;6998;53.608;9.958;2023-05-07T04:06:37;9.50;99.90
13856;DHT22;6998;53.608;9.958;2023-05-07T04:09:04;9.50;99.90
13856;DHT22;6998;53.608;9.958;2023-05-07T04:11:30;9.50;99.90
13856;DHT22;6998;53.608;9.958;2023-05-07T04:13:57;9.50;99.90
13856;DHT22;6998;53.608;9.958;2023-05-07T04:16:25;9.50;99.90
13856;DHT22;6998;53.608;9.958;2023-05-07T04:18:52;9.50;99.90
13856;DHT22;6998;53.608;9.958;2023-05-07T04:21:20;9.40;99.90
13856;DHT22;6998;53.608;9.958;2023-05-07T04:23:47;9.50;99.90
13856;DHT22;6998;53.608;9.958;2023-05-07T04:26:14;9.50;99.90
13856;DHT22;6998;53.608;9.958;2023-05-07T04:28:41;9.50;99.90
13856;DHT22;6998;53.608;9.958;2023-05-07T04:31:08;9.50;99.90
13856;DHT22;6998;53.608;9.958;2023-05-07T04:36:36;9.40;99.90
13856;DHT22;6998;53.608;9.958;2023-05-07T04:39:30;9.40;99.90
13856;DHT22;6998;53.608;9.958;2023-05-07T04:42:08;9.40;99.90
13856;DHT22;6998;53.608;9.958;2023-05-07T04:44:35;9.40;99.90
13856;DHT22;6998;53.608;9.958;2023-05-07T04:47:02;9.40;99.90
13856;DHT22;6998;53.608;9.958;2023-05-07T04:49:30;9.50;99.90
13856;DHT22;6998;53.608;9.958;2023-05-07T04:51:58;9.50;99.90
13856;DHT22;6998;53.608;9.958;2023-05-07T04:54:25;9.60;99.90
13856;DHT22;6998;53.608;9.958;2023-05-07T04:56:51;9.70;99.90
13856;DHT22;6998;53.608;9.958;2023-05-07T04:59:20;9.70;99.90
13856;DHT22;6998;53.608;9.958;2023-05-07T05:01:48;9.70;99.90
13856;DHT22;6998;53.608;9.958;2023-05-07T05:04:15;9.70;99.90
13856;DHT22;6998;53.608;9.958;2023-05-07T05:06:42;9.70;99.90
13856;DHT22;6998;53.608;9.958;2023-05-07T05:09:10;9.80;99.90
13856;DHT22;6998;53.608;9.958;2023-05-07T05:11:48;9.80;99.90
13856;DHT22;6998;53.608;9.958;2023-05-07T05:14:15;9.70;99.90
13856;DHT22;6998;53.608;9.958;2023-05-07T05:16:42;9.70;99.90
13856;DHT22;6998;53.608;9.958;2023-05-07T05:19:09;9.70;99.90
13856;DHT22;6998;53.608;9.958;2023-05-07T05:21:36;9.70;99.90
13856;DHT22;6998;53.608;9.958;2023-05-07T05:24:03;9.80;99.90
13856;DHT22;6998;53.608;9.958;2023-05-07T05:26:49;9.70;99.90
13856;DHT22;6998;53.608;9.958;2023-05-07T05:29:29;9.70;99.90
13856;DHT22;6998;53.608;9.958;2023-05-07T05:32:28;9.70;99.90
13856;DHT22;6998;53.608;9.958;2023-05-07T05:35:01;9.70;99.90
13856;DHT22;6998;53.608;9.958;2023-05-07T05:37:39;9.60;99.90
13856;DHT22;6998;53.608;9.958;2023-05-07T05:40:06;9.70;99.90
13856;DHT22;6998;53.608;9.958;2023-05-07T05:42:37;9.90;99.90
13856;DHT22;6998;53.608;9.958;2023-05-07T05:45:05;9.90;99.90
13856;DHT22;6998;53.608;9.958;2023-05-07T05:47:32;9.90;99.90
13856;DHT22;6998;53.608;9.958;2023-05-07T05:49:59;10.00;99.90
13856;DHT22;6998;53.608;9.958;2023-05-07T05:52:25;9.90;99.90
13856;DHT22;6998;53.608;9.958;2023-05-07T05:54:56;10.00;99.90
13856;DHT22;6998;53.608;9.958;2023-05-07T05:57:27;10.00;99.90
13856;DHT22;6998;53.608;9.958;2023-05-07T05:59:55;9.90;99.90
13856;DHT22;6998;53.608;9.958;2023-05-07T06:02:22;10.10;99.90
13856;DHT22;6998;53.608;9.958;2023-05-07T06:04:49;10.00;99.90
13856;DHT22;6998;53.608;9.958;2023-05-07T06:07:15;10.10;99.90
13856;DHT22;6998;53.608;9.958;2023-05-07T06:09:42;10.00;99.90
13856;DHT22;6998;53.608;9.958;2023-05-07T06:12:09;10.00;99.90
13856;DHT22;6998;53.608;9.958;2023-05-07T06:14:36;10.10;99.90
13856;DHT22;6998;53.608;9.958;2023-05-07T06:17:04;10.00;99.90
13856;DHT22;6998;53.608;9.958;2023-05-07T06:19:31;9.90;99.90
13856;DHT22;6998;53.608;9.958;2023-05-07T06:21:58;10.00;99.90
13856;DHT22;6998;53.608;9.958;2023-05-07T06:24:26;10.00;99.90
13856;DHT22;6998;53.608;9.958;2023-05-07T06:26:53;10.10;99.90
13856;DHT22;6998;53.608;9.958;2023-05-07T06:29:20;10.20;99.90
13856;DHT22;6998;53.608;9.958;2023-05-07T06:32:08;10.20;99.90
13856;DHT22;6998;53.608;9.958;2023-05-07T06:34:35;10.30;99.90
13856;DHT22;6998;53.608;9.958;2023-05-07T06:37:02;10.20;99.90
13856;DHT22;6998;53.608;9.958;2023-05-07T06:39:29;10.10;99.90
13856;DHT22;6998;53.608;9.958;2023-05-07T06:41:56;10.20;99.90
13856;DHT22;6998;53.608;9.958;2023-05-07T06:44:23;10.10;99.90
13856;DHT22;6998;53.608;9.958;2023-05-07T06:46:50;10.10;99.90
13856;DHT22;6998;53.608;9.958;2023-05-07T06:49:18;10.20;99.90
13856;DHT22;6998;53.608;9.958;2023-05-07T06:51:45;10.20;99.90
13856;DHT22;6998;53.608;9.958;2023-05-07T06:54:13;10.30;99.90
13856;DHT22;6998;53.608;9.958;2023-05-07T06:56:39;10.40;99.90
13856;DHT22;6998;53.608;9.958;2023-05-07T06:59:07;10.40;99.90
13856;DHT22;6998;53.608;9.958;2023-05-07T07:01:34;10.50;99.90
13856;DHT22;6998;53.608;9.958;2023-05-07T07:04:00;10.50;99.90
13856;DHT22;6998;53.608;9.958;2023-05-07T07:06:29;10.50;99.90
13856;DHT22;6998;53.608;9.958;2023-05-07T07:08:57;10.60;99.90
13856;DHT22;6998;53.608;9.958;2023-05-07T07:11:24;10.50;99.90
13856;DHT22;6998;53.608;9.958;2023-05-07T07:13:50;10.60;99.90
13856;DHT22;6998;53.608;9.958;2023-05-07T07:16:19;10.60;99.90
13856;DHT22;6998;53.608;9.958;2023-05-07T07:18:46;10.70;99.90
13856;DHT22;6998;53.608;9.958;2023-05-07T07:21:13;10.80;99.90
13856;DHT22;6998;53.608;9.958;2023-05-07T07:23:41;10.90;99.90
13856;DHT22;6998;53.608;9.958;2023-05-07T07:26:08;11.00;99.90
13856;DHT22;6998;53.608;9.958;2023-05-07T07:28:35;10.90;99.90
13856;DHT22;6998;53.608;9.958;2023-05-07T07:31:01;11.00;99.90
13856;DHT22;6998;53.608;9.958;2023-05-07T07:33:28;11.00;99.90
13856;DHT22;6998;53.608;9.958;2023-05-07T07:35:55;11.10;99.90
13856;DHT22;6998;53.608;9.958;2023-05-07T07:38:22;11.20;99.90
13856;DHT22;6998;53.608;9.958;2023-05-07T07:40:50;11.30;99.90
13856;DHT22;6998;53.608;9.958;2023-05-07T07:43:17;11.40;99.90
13856;DHT22;6998;53.608;9.958;2023-05-07T07:45:43;11.30;99.90
13856;DHT22;6998;53.608;9.958;2023-05-07T07:48:11;11.40;99.90
13856;DHT22;6998;53.608;9.958;2023-05-07T07:50:38;11.40;99.90
13856;DHT22;6998;53.608;9.958;2023-05-07T07:53:05;11.40;99.90
13856;DHT22;6998;53.608;9.958;2023-05-07T07:55:31;11.40;99.90
13856;DHT22;6998;53.608;9.958;2023-05-07T07:57:59;11.40;99.90
13856;DHT22;6998;53.608;9.958;2023-05-07T08:00:26;11.50;99.90
13856;DHT22;6998;53.608;9.958;2023-05-07T08:02:53;11.60;99.90
13856;DHT22;6998;53.608;9.958;2023-05-07T08:05:20;11.60;99.90
13856;DHT22;6998;53.608;9.958;2023-05-07T08:07:47;11.60;99.90
13856;DHT22;6998;53.608;9.958;2023-05-07T08:10:17;11.80;99.90
13856;DHT22;6998;53.608;9.958;2023-05-07T08:12:46;11.80;99.90
13856;DHT22;6998;53.608;9.958;2023-05-07T08:15:15;11.90;99.90
13856;DHT22;6998;53.608;9.958;2023-05-07T08:17:42;12.00;99.90
13856;DHT22;6998;53.608;9.958;2023-05-07T08:20:09;12.10;99.90
13856;DHT22;6998;53.608;9.958;2023-05-07T08:22:36;12.10;99.90
13856;DHT22;6998;53.608;9.958;2023-05-07T08:25:04;12.10;99.90
13856;DHT22;6998;53.608;9.958;2023-05-07T08:27:31;12.20;99.90
13856;DHT22;6998;53.608;9.958;2023-05-07T08:29:57;12.20;99.90
13856;DHT22;6998;53.608;9.958;2023-05-07T08:32:25;12.30;99.90
13856;DHT22;6998;53.608;9.958;2023-05-07T08:34:53;12.30;99.90
13856;DHT22;6998;53.608;9.958;2023-05-07T08:37:20;12.30;99.90
13856;DHT22;6998;53.608;9.958;2023-05-07T08:39:47;12.10;99.90
13856;DHT22;6998;53.608;9.958;2023-05-07T08:42:16;12.00;99.90
13856;DHT22;6998;53.608;9.958;2023-05-07T08:44:45;12.10;99.90
13856;DHT22;6998;53.608;9.958;2023-05-07T08:47:13;12.10;99.90
13856;DHT22;6998;53.608;9.958;2023-05-07T08:49:41;12.20;99.90
13856;DHT22;6998;53.608;9.958;2023-05-07T08:52:08;12.40;99.90
13856;DHT22;6998;53.608;9.958;2023-05-07T08:54:37;12.40;99.90
13856;DHT22;6998;53.608;9.958;2023-05-07T08:57:03;12.10;99.90
13856;DHT22;6998;53.608;9.958;2023-05-07T08:59:30;12.10;99.90
13856;DHT22;6998;53.608;9.958;2023-05-07T09:01:57;12.10;99.90
13856;DHT22;6998;53.608;9.958;2023-05-07T09:04:24;12.20;99.90
13856;DHT22;6998;53.608;9.958;2023-05-07T09:06:52;12.20;99.90
13856;DHT22;6998;53.608;9.958;2023-05-07T09:09:21;12.10;99.90
13856;DHT22;6998;53.608;9.958;2023-05-07T09:11:48;12.10;99.90
13856;DHT22;6998;53.608;9.958;2023-05-07T09:14:16;12.20;99.90
13856;DHT22;6998;53.608;9.958;2023-05-07T09:16:43;12.20;99.90
13856;DHT22;6998;53.608;9.958;2023-05-07T09:19:09;12.30;99.90
13856;DHT22;6998;53.608;9.958;2023-05-07T09:21:36;12.30;99.90
13856;DHT22;6998;53.608;9.958;2023-05-07T09:24:05;12.30;99.90
13856;DHT22;6998;53.608;9.958;2023-05-07T09:26:32;12.40;99.90
13856;DHT22;6998;53.608;9.958;2023-05-07T09:29:00;12.60;99.90
13856;DHT22;6998;53.608;9.958;2023-05-07T09:31:27;12.60;99.90
13856;DHT22;6998;53.608;9.958;2023-05-07T09:33:54;12.50;99.90
13856;DHT22;6998;53.608;9.958;2023-05-07T09:36:21;12.60;99.90
13856;DHT22;6998;53.608;9.958;2023-05-07T09:38:48;12.70;99.90
13856;DHT22;6998;53.608;9.958;2023-05-07T09:41:16;12.80;99.90
13856;DHT22;6998;53.608;9.958;2023-05-07T09:43:43;12.90;99.90
13856;DHT22;6998;53.608;9.958;2023-05-07T09:46:12;13.10;99.90
13856;DHT22;6998;53.608;9.958;2023-05-07T09:48:41;13.20;99.90
13856;DHT22;6998;53.608;9.958;2023-05-07T09:51:20;13.10;99.90
13856;DHT22;6998;53.608;9.958;2023-05-07T09:53:48;13.20;99.90
13856;DHT22;6998;53.608;9.958;2023-05-07T09:56:18;13.20;99.90
13856;DHT22;6998;53.608;9.958;2023-05-07T09:58:46;13.30;99.90
13856;DHT22;6998;53.608;9.958;2023-05-07T10:01:13;13.20;99.90
13856;DHT22;6998;53.608;9.958;2023-05-07T10:03:41;13.20;99.90
13856;DHT22;6998;53.608;9.958;2023-05-07T10:06:09;13.10;99.90
13856;DHT22;6998;53.608;9.958;2023-05-07T10:08:36;13.10;99.90
13856;DHT22;6998;53.608;9.958;2023-05-07T10:11:04;13.10;99.90
13856;DHT22;6998;53.608;9.958;2023-05-07T10:13:33;13.20;99.90
13856;DHT22;6998;53.608;9.958;2023-05-07T10:16:01;13.00;99.90
13856;DHT22;6998;53.608;9.958;2023-05-07T10:18:30;13.00;99.90
13856;DHT22;6998;53.608;9.958;2023-05-07T10:21:02;13.00;99.90
13856;DHT22;6998;53.608;9.958;2023-05-07T10:23:31;13.10;99.90
13856;DHT22;6998;53.608;9.958;2023-05-07T10:25:59;13.20;99.90
13856;DHT22;6998;53.608;9.958;2023-05-07T10:28:29;13.30;99.90
13856;DHT22;6998;53.608;9.958;2023-05-07T10:31:08;13.30;99.90
13856;DHT22;6998;53.608;9.958;2023-05-07T10:33:36;13.50;99.90
13856;DHT22;6998;53.608;9.958;2023-05-07T10:36:05;13.40;99.90
13856;DHT22;6998;53.608;9.958;2023-05-07T10:38:33;13.30;99.90
13856;DHT22;6998;53.608;9.958;2023-05-07T10:41:00;13.20;99.90
13856;DHT22;6998;53.608;9.958;2023-05-07T10:43:39;13.10;99.90
13856;DHT22;6998;53.608;9.958;2023-05-07T10:46:13;13.20;99.90
13856;DHT22;6998;53.608;9.958;2023-05-07T10:49:10;13.20;99.90
13856;DHT22;6998;53.608;9.958;2023-05-07T10:51:41;13.20;99.90
13856;DHT22;6998;53.608;9.958;2023-05-07T10:54:21;13.10;99.90
13856;DHT22;6998;53.608;9.958;2023-05-07T10:56:49;13.20;99.90
13856;DHT22;6998;53.608;9.958;2023-05-07T10:59:35;13.10;99.90
13856;DHT22;6998;53.608;9.958;2023-05-07T11:02:08;13.30;99.90
13856;DHT22;6998;53.608;9.958;2023-05-07T11:04:36;13.30;99.90
13856;DHT22;6998;53.608;9.958;2023-05-07T11:07:25;13.20;99.90
13856;DHT22;6998;53.608;9.958;2023-05-07T11:09:57;13.50;99.90
13856;DHT22;6998;53.608;9.958;2023-05-07T11:12:52;13.60;99.90
13856;DHT22;6998;53.608;9.958;2023-05-07T11:15:43;13.70;99.90
13856;DHT22;6998;53.608;9.958;2023-05-07T11:18:13;13.90;99.90
13856;DHT22;6998;53.608;9.958;2023-05-07T11:20:48;13.70;99.90
13856;DHT22;6998;53.608;9.958;2023-05-07T11:23:56;13.70;99.90
13856;DHT22;6998;53.608;9.958;2023-05-07T11:26:24;13.80;99.90
13856;DHT22;6998;53.608;9.958;2023-05-07T11:28:52;14.10;99.90
13856;DHT22;6998;53.608;9.958;2023-05-07T11:31:23;14.40;99.90
13856;DHT22;6998;53.608;9.958;2023-05-07T11:33:53;14.40;99.90
13856;DHT22;6998;53.608;9.958;2023-05-07T11:36:21;14.30;99.90
13856;DHT22;6998;53.608;9.958;2023-05-07T11:38:49;14.50;99.90
13856;DHT22;6998;53.608;9.958;2023-05-07T11:41:16;14.50;99.90
13856;DHT22;6998;53.608;9.958;2023-05-07T11:43:55;14.60;99.90
13856;DHT22;6998;53.608;9.958;2023-05-07T11:46:22;14.70;99.90
13856;DHT22;6998;53.608;9.958;2023-05-07T11:48:49;14.80;99.90
13856;DHT22;6998;53.608;9.958;2023-05-07T11:51:21;14.90;99.90
13856;DHT22;6998;53.608;9.958;2023-05-07T11:53:48;15.20;99.90
13856;DHT22;6998;53.608;9.958;2023-05-07T11:56:16;15.40;99.90
13856;DHT22;6998;53.608;9.958;2023-05-07T11:58:44;15.60;99.90
13856;DHT22;6998;53.608;9.958;2023-05-07T12:01:12;15.60;99.90
13856;DHT22;6998;53.608;9.958;2023-05-07T12:03:40;15.80;99.90
13856;DHT22;6998;53.608;9.958;2023-05-07T12:06:10;15.50;99.90
13856;DHT22;6998;53.608;9.958;2023-05-07T12:08:40;15.60;99.90
13856;DHT22;6998;53.608;9.958;2023-05-07T12:11:08;15.60;99.90
13856;DHT22;6998;53.608;9.958;2023-05-07T12:13:37;15.70;99.90
13856;DHT22;6998;53.608;9.958;2023-05-07T12:16:05;15.70;99.90
13856;DHT22;6998;53.608;9.958;2023-05-07T12:18:36;15.60;99.90
13856;DHT22;6998;53.608;9.958;2023-05-07T12:21:05;15.50;99.90
13856;DHT22;6998;53.608;9.958;2023-05-07T12:23:34;15.60;99.90
13856;DHT22;6998;53.608;9.958;2023-05-07T12:26:04;15.60;99.90
13856;DHT22;6998;53.608;9.958;2023-05-07T12:28:36;15.50;99.90
13856;DHT22;6998;53.608;9.958;2023-05-07T12:31:05;15.80;99.90
13856;DHT22;6998;53.608;9.958;2023-05-07T12:33:32;16.00;99.90
13856;DHT22;6998;53.608;9.958;2023-05-07T12:36:03;16.20;99.90
13856;DHT22;6998;53.608;9.958;2023-05-07T12:38:35;16.30;99.90
13856;DHT22;6998;53.608;9.958;2023-05-07T12:41:05;16.50;99.90
13856;DHT22;6998;53.608;9.958;2023-05-07T12:43:32;16.70;99.90
13856;DHT22;6998;53.608;9.958;2023-05-07T12:46:01;16.80;99.90
13856;DHT22;6998;53.608;9.958;2023-05-07T12:48:29;16.40;99.90
13856;DHT22;6998;53.608;9.958;2023-05-07T12:50:57;16.40;99.90
13856;DHT22;6998;53.608;9.958;2023-05-07T12:53:25;16.30;99.90
13856;DHT22;6998;53.608;9.958;2023-05-07T12:55:53;16.20;99.90
13856;DHT22;6998;53.608;9.958;2023-05-07T12:58:27;16.20;99.90
13856;DHT22;6998;53.608;9.958;2023-05-07T13:00:55;16.00;99.90
13856;DHT22;6998;53.608;9.958;2023-05-07T13:03:25;16.00;99.90
13856;DHT22;6998;53.608;9.958;2023-05-07T13:05:52;16.10;99.90
13856;DHT22;6998;53.608;9.958;2023-05-07T13:08:33;16.20;99.90
13856;DHT22;6998;53.608;9.958;2023-05-07T13:11:01;16.20;99.90
13856;DHT22;6998;53.608;9.958;2023-05-07T13:13:30;16.10;99.90
13856;DHT22;6998;53.608;9.958;2023-05-07T13:15:57;16.20;99.90
13856;DHT22;6998;53.608;9.958;2023-05-07T13:18:25;16.30;99.90
13856;DHT22;6998;53.608;9.958;2023-05-07T13:20:52;16.40;99.90
13856;DHT22;6998;53.608;9.958;2023-05-07T13:23:19;16.50;99.90
13856;DHT22;6998;53.608;9.958;2023-05-07T13:25:47;16.60;99.90
13856;DHT22;6998;53.608;9.958;2023-05-07T13:28:14;16.90;99.90
13856;DHT22;6998;53.608;9.958;2023-05-07T13:30:42;17.10;99.90
13856;DHT22;6998;53.608;9.958;2023-05-07T13:33:09;17.10;99.90
13856;DHT22;6998;53.608;9.958;2023-05-07T13:35:36;17.10;99.90
13856;DHT22;6998;53.608;9.958;2023-05-07T13:38:03;17.30;99.90
13856;DHT22;6998;53.608;9.958;2023-05-07T13:40:30;17.40;99.90
13856;DHT22;6998;53.608;9.958;2023-05-07T13:42:58;17.50;99.90
13856;DHT22;6998;53.608;9.958;2023-05-07T13:45:29;17.60;99.90
13856;DHT22;6998;53.608;9.958;2023-05-07T13:47:57;17.70;99.90
13856;DHT22;6998;53.608;9.958;2023-05-07T13:50:24;17.70;99.90
13856;DHT22;6998;53.608;9.958;2023-05-07T13:52:52;17.60;99.90
13856;DHT22;6998;53.608;9.958;2023-05-07T13:55:20;17.60;99.90
13856;DHT22;6998;53.608;9.958;2023-05-07T13:57:53;17.60;99.90
13856;DHT22;6998;53.608;9.958;2023-05-07T14:00:21;17.70;99.90
13856;DHT22;6998;53.608;9.958;2023-05-07T14:02:47;17.80;99.90
13856;DHT22;6998;53.608;9.958;2023-05-07T14:05:16;17.70;99.90
13856;DHT22;6998;53.608;9.958;2023-05-07T14:07:43;17.70;99.90
13856;DHT22;6998;53.608;9.958;2023-05-07T14:10:10;17.60;99.90
13856;DHT22;6998;53.608;9.958;2023-05-07T14:12:43;17.70;99.90
13856;DHT22;6998;53.608;9.958;2023-05-07T14:15:10;18.00;99.90
13856;DHT22;6998;53.608;9.958;2023-05-07T14:17:37;18.10;99.90
13856;DHT22;6998;53.608;9.958;2023-05-07T14:20:05;18.20;99.90
13856;DHT22;6998;53.608;9.958;2023-05-07T14:22:34;18.30;99.90
13856;DHT22;6998;53.608;9.958;2023-05-07T14:25:01;18.50;99.90
13856;DHT22;6998;53.608;9.958;2023-05-07T14:27:28;18.60;99.90
13856;DHT22;6998;53.608;9.958;2023-05-07T14:29:54;18.70;99.90
13856;DHT22;6998;53.608;9.958;2023-05-07T14:32:21;18.80;99.90
13856;DHT22;6998;53.608;9.958;2023-05-07T14:34:49;19.10;99.90
13856;DHT22;6998;53.608;9.958;2023-05-07T14:37:16;19.40;99.90
13856;DHT22;6998;53.608;9.958;2023-05-07T14:39:46;19.20;99.90
13856;DHT22;6998;53.608;9.958;2023-05-07T14:42:13;18.90;99.90
13856;DHT22;6998;53.608;9.958;2023-05-07T14:44:40;18.80;99.90
13856;DHT22;6998;53.608;9.958;2023-05-07T14:47:08;18.60;99.90
13856;DHT22;6998;53.608;9.958;2023-05-07T14:49:35;18.80;99.90
13856;DHT22;6998;53.608;9.958;2023-05-07T14:52:02;19.10;99.90
13856;DHT22;6998;53.608;9.958;2023-05-07T14:54:29;19.30;99.90
13856;DHT22;6998;53.608;9.958;2023-05-07T14:56:58;19.30;99.90
13856;DHT22;6998;53.608;9.958;2023-05-07T14:59:25;18.90;99.90
13856;DHT22;6998;53.608;9.958;2023-05-07T15:01:55;18.40;99.90
13856;DHT22;6998;53.608;9.958;2023-05-07T15:04:23;17.90;99.90
13856;DHT22;6998;53.608;9.958;2023-05-07T15:06:50;17.70;99.90
13856;DHT22;6998;53.608;9.958;2023-05-07T15:09:17;17.50;99.90
13856;DHT22;6998;53.608;9.958;2023-05-07T15:11:44;17.40;99.90
13856;DHT22;6998;53.608;9.958;2023-05-07T15:14:12;17.30;99.90
13856;DHT22;6998;53.608;9.958;2023-05-07T15:16:49;17.40;99.90
13856;DHT22;6998;53.608;9.958;2023-05-07T15:19:16;17.40;99.90
13856;DHT22;6998;53.608;9.958;2023-05-07T15:21:46;17.50;99.90
13856;DHT22;6998;53.608;9.958;2023-05-07T15:24:27;17.40;99.90
13856;DHT22;6998;53.608;9.958;2023-05-07T15:26:54;17.30;99.90
13856;DHT22;6998;53.608;9.958;2023-05-07T15:29:22;17.20;99.90
13856;DHT22;6998;53.608;9.958;2023-05-07T15:31:49;17.40;99.90
13856;DHT22;6998;53.608;9.958;2023-05-07T15:34:26;17.60;99.90
13856;DHT22;6998;53.608;9.958;2023-05-07T15:36:59;17.60;99.90
13856;DHT22;6998;53.608;9.958;2023-05-07T15:39:26;17.80;99.90
13856;DHT22;6998;53.608;9.958;2023-05-07T15:41:52;17.60;99.90
13856;DHT22;6998;53.608;9.958;2023-05-07T15:44:19;17.60;99.90
13856;DHT22;6998;53.608;9.958;2023-05-07T15:46:48;17.50;99.90
13856;DHT22;6998;53.608;9.958;2023-05-07T15:49:15;17.50;99.90
13856;DHT22;6998;53.608;9.958;2023-05-07T15:51:42;17.40;99.90
13856;DHT22;6998;53.608;9.958;2023-05-07T15:54:09;17.40;99.90
13856;DHT22;6998;53.608;9.958;2023-05-07T15:56:35;17.20;99.90
13856;DHT22;6998;53.608;9.958;2023-05-07T15:59:02;17.20;99.90
13856;DHT22;6998;53.608;9.958;2023-05-07T16:01:29;17.30;99.90
13856;DHT22;6998;53.608;9.958;2023-05-07T16:03:58;17.20;99.90
13856;DHT22;6998;53.608;9.958;2023-05-07T16:06:25;17.20;99.90
13856;DHT22;6998;53.608;9.958;2023-05-07T16:08:53;17.10;99.90
13856;DHT22;6998;53.608;9.958;2023-05-07T16:11:20;17.20;99.90